sensor_id;sensor_type;location;lat;lon;timestamp;P1;durP1;ratioP1;P2;durP2;ratioP2
71048;SDS011;58704;53.358;-6.238;2023-08-17T00:02:10;5.85;;;3.88;;
71048;SDS011;58704;53.358;-6.238;2023-08-17T00:04:37;8.13;;;3.77;;
71048;SDS011;58704;53.358;-6.238;2023-08-17T00:07:02;6.93;;;3.78;;
71048;SDS011;58704;53.358;-6.238;2023-08-17T00:09:28;8.70;;;3.73;;
71048;SDS011;58704;53.358;-6.238;2023-08-17T00:11:53;6.57;;;3.40;;
71048;SDS011;58704;53.358;-6.238;2023-08-17T00:14:19;8.63;;;3.13;;
71048;SDS011;58704;53.358;-6.238;2023-08-17T00:16:44;7.60;;;3.27;;
71048;SDS011;58704;53.358;-6.238;2023-08-17T00:19:09;10.90;;;3.93;;
71048;SDS011;58704;53.358;-6.238;2023-08-17T00:21:35;4.27;;;3.13;;
71048;SDS011;58704;53.358;-6.238;2023-08-17T00:24:01;6.97;;;3.42;;
71048;SDS011;58704;53.358;-6.238;2023-08-17T00:26:26;8.10;;;3.30;;
71048;SDS011;58704;53.358;-6.238;2023-08-17T00:28:53;5.65;;;3.03;;
71048;SDS011;58704;53.358;-6.238;2023-08-17T00:31:18;3.90;;;2.77;;
71048;SDS011;58704;53.358;-6.238;2023-08-17T00:33:44;6.27;;;3.23;;
71048;SDS011;58704;53.358;-6.238;2023-08-17T00:36:09;4.85;;;3.10;;
71048;SDS011;58704;53.358;-6.238;2023-08-17T00:38:35;4.90;;;3.30;;
71048;SDS011;58704;53.358;-6.238;2023-08-17T00:41:00;4.20;;;3.13;;
71048;SDS011;58704;53.358;-6.238;2023-08-17T00:43:25;4.50;;;3.00;;
71048;SDS011;58704;53.358;-6.238;2023-08-17T00:45:51;3.30;;;2.78;;
71048;SDS011;58704;53.358;-6.238;2023-08-17T00:48:16;3.50;;;3.10;;
71048;SDS011;58704;53.358;-6.238;2023-08-17T00:50:41;6.20;;;2.70;;
71048;SDS011;58704;53.358;-6.238;2023-08-17T00:53:07;3.60;;;2.80;;
71048;SDS011;58704;53.358;-6.238;2023-08-17T00:55:38;8.03;;;2.90;;
71048;SDS011;58704;53.358;-6.238;2023-08-17T00:58:03;6.07;;;2.88;;
71048;SDS011;58704;53.358;-6.238;2023-08-17T01:00:29;4.70;;;3.60;;
71048;SDS011;58704;53.358;-6.238;2023-08-17T01:02:54;6.03;;;3.50;;
71048;SDS011;58704;53.358;-6.238;2023-08-17T01:05:20;4.65;;;3.50;;
71048;SDS011;58704;53.358;-6.238;2023-08-17T01:07:46;3.42;;;2.95;;
71048;SDS011;58704;53.358;-6.238;2023-08-17T01:10:12;4.00;;;3.20;;
71048;SDS011;58704;53.358;-6.238;2023-08-17T01:18:00;4.05;;;3.22;;
71048;SDS011;58704;53.358;-6.238;2023-08-17T01:20:31;5.10;;;3.30;;
71048;SDS011;58704;53.358;-6.238;2023-08-17T01:23:01;5.63;;;3.22;;
71048;SDS011;58704;53.358;-6.238;2023-08-17T01:25:29;5.38;;;3.05;;
71048;SDS011;58704;53.358;-6.238;2023-08-17T01:27:55;5.37;;;3.40;;
71048;SDS011;58704;53.358;-6.238;2023-08-17T01:30:21;4.57;;;3.10;;
71048;SDS011;58704;53.358;-6.238;2023-08-17T01:37:44;4.83;;;3.30;;
71048;SDS011;58704;53.358;-6.238;2023-08-17T01:40:09;4.65;;;3.35;;
71048;SDS011;58704;53.358;-6.238;2023-08-17T01:42:36;7.47;;;2.90;;
71048;SDS011;58704;53.358;-6.238;2023-08-17T01:45:01;4.90;;;2.87;;
71048;SDS011;58704;53.358;-6.238;2023-08-17T01:47:27;4.65;;;2.67;;
71048;SDS011;58704;53.358;-6.238;2023-08-17T01:49:52;4.17;;;2.67;;
71048;SDS011;58704;53.358;-6.238;2023-08-17T01:52:17;3.07;;;2.43;;
71048;SDS011;58704;53.358;-6.238;2023-08-17T01:54:43;2.87;;;2.53;;
71048;SDS011;58704;53.358;-6.238;2023-08-17T01:57:08;3.20;;;2.15;;
71048;SDS011;58704;53.358;-6.238;2023-08-17T01:59:34;5.83;;;2.43;;
71048;SDS011;58704;53.358;-6.238;2023-08-17T02:01:59;2.90;;;2.10;;
71048;SDS011;58704;53.358;-6.238;2023-08-17T02:04:25;2.23;;;1.80;;
71048;SDS011;58704;53.358;-6.238;2023-08-17T02:06:50;3.58;;;2.13;;
71048;SDS011;58704;53.358;-6.238;2023-08-17T02:09:15;2.73;;;1.90;;
71048;SDS011;58704;53.358;-6.238;2023-08-17T02:11:41;4.10;;;1.97;;
71048;SDS011;58704;53.358;-6.238;2023-08-17T02:14:06;2.33;;;2.00;;
71048;SDS011;58704;53.358;-6.238;2023-08-17T02:16:31;3.45;;;1.98;;
71048;SDS011;58704;53.358;-6.238;2023-08-17T02:18:57;1.90;;;1.70;;
71048;SDS011;58704;53.358;-6.238;2023-08-17T02:21:22;2.10;;;1.87;;
71048;SDS011;58704;53.358;-6.238;2023-08-17T02:23:47;2.50;;;1.80;;
71048;SDS011;58704;53.358;-6.238;2023-08-17T02:26:13;3.47;;;1.90;;
71048;SDS011;58704;53.358;-6.238;2023-08-17T02:28:38;3.10;;;1.85;;
71048;SDS011;58704;53.358;-6.238;2023-08-17T02:31:04;3.60;;;1.87;;
71048;SDS011;58704;53.358;-6.238;2023-08-17T02:33:31;3.28;;;1.60;;
71048;SDS011;58704;53.358;-6.238;2023-08-17T02:35:58;3.20;;;1.70;;
71048;SDS011;58704;53.358;-6.238;2023-08-17T02:38:23;1.77;;;1.67;;
71048;SDS011;58704;53.358;-6.238;2023-08-17T02:40:49;3.50;;;1.97;;
71048;SDS011;58704;53.358;-6.238;2023-08-17T02:43:15;2.47;;;1.90;;
71048;SDS011;58704;53.358;-6.238;2023-08-17T02:45:40;3.43;;;1.50;;
71048;SDS011;58704;53.358;-6.238;2023-08-17T02:48:05;3.20;;;2.03;;
71048;SDS011;58704;53.358;-6.238;2023-08-17T02:50:31;4.30;;;1.83;;
71048;SDS011;58704;53.358;-6.238;2023-08-17T02:52:56;4.27;;;2.13;;
71048;SDS011;58704;53.358;-6.238;2023-08-17T02:55:22;4.90;;;2.27;;
71048;SDS011;58704;53.358;-6.238;2023-08-17T02:57:47;6.67;;;2.23;;
71048;SDS011;58704;53.358;-6.238;2023-08-17T03:00:12;5.10;;;2.20;;
71048;SDS011;58704;53.358;-6.238;2023-08-17T03:02:38;4.32;;;2.00;;
71048;SDS011;58704;53.358;-6.238;2023-08-17T03:05:04;3.00;;;2.00;;
71048;SDS011;58704;53.358;-6.238;2023-08-17T03:07:29;5.60;;;1.85;;
71048;SDS011;58704;53.358;-6.238;2023-08-17T03:09:55;3.73;;;2.00;;
71048;SDS011;58704;53.358;-6.238;2023-08-17T03:12:20;3.97;;;2.90;;
71048;SDS011;58704;53.358;-6.238;2023-08-17T03:14:46;4.20;;;2.73;;
71048;SDS011;58704;53.358;-6.238;2023-08-17T03:17:11;5.60;;;2.30;;
71048;SDS011;58704;53.358;-6.238;2023-08-17T03:19:36;4.17;;;2.90;;
71048;SDS011;58704;53.358;-6.238;2023-08-17T03:22:02;5.00;;;2.93;;
71048;SDS011;58704;53.358;-6.238;2023-08-17T03:24:27;4.28;;;2.40;;
71048;SDS011;58704;53.358;-6.238;2023-08-17T03:26:52;3.97;;;2.80;;
71048;SDS011;58704;53.358;-6.238;2023-08-17T03:29:18;5.63;;;2.80;;
71048;SDS011;58704;53.358;-6.238;2023-08-17T03:31:43;4.40;;;2.63;;
71048;SDS011;58704;53.358;-6.238;2023-08-17T03:34:08;4.47;;;2.60;;
71048;SDS011;58704;53.358;-6.238;2023-08-17T03:36:34;4.60;;;2.55;;
71048;SDS011;58704;53.358;-6.238;2023-08-17T03:38:59;4.93;;;2.50;;
71048;SDS011;58704;53.358;-6.238;2023-08-17T03:41:24;2.77;;;2.33;;
71048;SDS011;58704;53.358;-6.238;2023-08-17T03:43:50;3.80;;;2.40;;
71048;SDS011;58704;53.358;-6.238;2023-08-17T03:46:15;5.37;;;2.83;;
71048;SDS011;58704;53.358;-6.238;2023-08-17T03:48:41;6.20;;;3.00;;
71048;SDS011;58704;53.358;-6.238;2023-08-17T03:51:06;4.40;;;2.90;;
71048;SDS011;58704;53.358;-6.238;2023-08-17T03:53:32;7.43;;;3.10;;
71048;SDS011;58704;53.358;-6.238;2023-08-17T03:55:57;5.17;;;3.00;;
71048;SDS011;58704;53.358;-6.238;2023-08-17T03:58:23;3.53;;;2.87;;
71048;SDS011;58704;53.358;-6.238;2023-08-17T04:00:51;3.65;;;2.67;;
71048;SDS011;58704;53.358;-6.238;2023-08-17T04:03:17;4.50;;;2.80;;
71048;SDS011;58704;53.358;-6.238;2023-08-17T04:05:43;2.80;;;2.60;;
71048;SDS011;58704;53.358;-6.238;2023-08-17T04:08:09;4.43;;;2.93;;
71048;SDS011;58704;53.358;-6.238;2023-08-17T04:10:34;3.83;;;2.97;;
71048;SDS011;58704;53.358;-6.238;2023-08-17T04:12:59;4.33;;;3.20;;
71048;SDS011;58704;53.358;-6.238;2023-08-17T04:15:25;5.60;;;2.90;;
71048;SDS011;58704;53.358;-6.238;2023-08-17T04:17:50;4.53;;;3.00;;
71048;SDS011;58704;53.358;-6.238;2023-08-17T04:20:15;3.35;;;2.88;;
71048;SDS011;58704;53.358;-6.238;2023-08-17T04:22:41;4.57;;;3.07;;
71048;SDS011;58704;53.358;-6.238;2023-08-17T04:25:06;6.13;;;3.03;;
71048;SDS011;58704;53.358;-6.238;2023-08-17T04:27:32;8.00;;;3.58;;
71048;SDS011;58704;53.358;-6.238;2023-08-17T04:29:58;9.63;;;2.90;;
71048;SDS011;58704;53.358;-6.238;2023-08-17T04:32:23;6.40;;;3.10;;
71048;SDS011;58704;53.358;-6.238;2023-08-17T04:34:49;5.70;;;2.93;;
71048;SDS011;58704;53.358;-6.238;2023-08-17T04:37:14;6.43;;;3.57;;
71048;SDS011;58704;53.358;-6.238;2023-08-17T04:39:40;4.00;;;2.83;;
71048;SDS011;58704;53.358;-6.238;2023-08-17T04:42:06;5.75;;;3.30;;
71048;SDS011;58704;53.358;-6.238;2023-08-17T04:44:31;6.10;;;3.00;;
71048;SDS011;58704;53.358;-6.238;2023-08-17T04:46:56;4.30;;;2.90;;
71048;SDS011;58704;53.358;-6.238;2023-08-17T04:49:22;7.03;;;2.60;;
71048;SDS011;58704;53.358;-6.238;2023-08-17T04:51:48;5.60;;;2.97;;
71048;SDS011;58704;53.358;-6.238;2023-08-17T04:54:13;5.30;;;2.40;;
71048;SDS011;58704;53.358;-6.238;2023-08-17T04:56:38;8.07;;;3.47;;
71048;SDS011;58704;53.358;-6.238;2023-08-17T04:59:04;6.93;;;3.17;;
71048;SDS011;58704;53.358;-6.238;2023-08-17T05:01:29;4.57;;;3.40;;
71048;SDS011;58704;53.358;-6.238;2023-08-17T05:03:55;8.70;;;3.33;;
71048;SDS011;58704;53.358;-6.238;2023-08-17T05:06:20;6.67;;;3.40;;
71048;SDS011;58704;53.358;-6.238;2023-08-17T05:08:45;6.37;;;3.27;;
71048;SDS011;58704;53.358;-6.238;2023-08-17T05:11:11;6.37;;;3.40;;
71048;SDS011;58704;53.358;-6.238;2023-08-17T05:13:36;4.22;;;2.58;;
71048;SDS011;58704;53.358;-6.238;2023-08-17T05:16:02;5.27;;;2.70;;
71048;SDS011;58704;53.358;-6.238;2023-08-17T05:18:27;9.37;;;3.40;;
71048;SDS011;58704;53.358;-6.238;2023-08-17T05:20:53;6.87;;;3.17;;
71048;SDS011;58704;53.358;-6.238;2023-08-17T05:23:18;5.13;;;3.25;;
71048;SDS011;58704;53.358;-6.238;2023-08-17T05:25:47;4.97;;;3.03;;
71048;SDS011;58704;53.358;-6.238;2023-08-17T05:28:13;6.72;;;2.88;;
71048;SDS011;58704;53.358;-6.238;2023-08-17T05:30:38;7.00;;;3.35;;
71048;SDS011;58704;53.358;-6.238;2023-08-17T05:33:04;8.23;;;3.73;;
71048;SDS011;58704;53.358;-6.238;2023-08-17T05:35:29;7.17;;;2.63;;
71048;SDS011;58704;53.358;-6.238;2023-08-17T05:37:54;6.67;;;3.10;;
71048;SDS011;58704;53.358;-6.238;2023-08-17T05:40:20;7.87;;;3.60;;
71048;SDS011;58704;53.358;-6.238;2023-08-17T05:42:45;9.13;;;3.47;;
71048;SDS011;58704;53.358;-6.238;2023-08-17T05:45:10;9.17;;;3.10;;
71048;SDS011;58704;53.358;-6.238;2023-08-17T05:47:36;8.97;;;3.43;;
71048;SDS011;58704;53.358;-6.238;2023-08-17T05:50:01;5.77;;;2.77;;
71048;SDS011;58704;53.358;-6.238;2023-08-17T05:52:27;8.02;;;3.40;;
71048;SDS011;58704;53.358;-6.238;2023-08-17T05:54:52;7.87;;;3.40;;
71048;SDS011;58704;53.358;-6.238;2023-08-17T05:57:18;9.40;;;3.30;;
71048;SDS011;58704;53.358;-6.238;2023-08-17T05:59:43;7.57;;;3.90;;
71048;SDS011;58704;53.358;-6.238;2023-08-17T06:02:08;8.03;;;3.77;;
71048;SDS011;58704;53.358;-6.238;2023-08-17T06:04:34;7.30;;;2.93;;
71048;SDS011;58704;53.358;-6.238;2023-08-17T06:06:59;7.87;;;3.43;;
71048;SDS011;58704;53.358;-6.238;2023-08-17T06:09:24;8.60;;;3.20;;
71048;SDS011;58704;53.358;-6.238;2023-08-17T06:11:50;6.17;;;3.13;;
71048;SDS011;58704;53.358;-6.238;2023-08-17T06:14:15;6.50;;;3.20;;
71048;SDS011;58704;53.358;-6.238;2023-08-17T06:16:41;5.47;;;3.30;;
71048;SDS011;58704;53.358;-6.238;2023-08-17T06:19:06;11.17;;;2.97;;
71048;SDS011;58704;53.358;-6.238;2023-08-17T06:21:31;10.17;;;3.23;;
71048;SDS011;58704;53.358;-6.238;2023-08-17T06:23:57;5.80;;;3.10;;
71048;SDS011;58704;53.358;-6.238;2023-08-17T06:26:22;6.50;;;2.70;;
71048;SDS011;58704;53.358;-6.238;2023-08-17T06:28:47;8.77;;;2.30;;
71048;SDS011;58704;53.358;-6.238;2023-08-17T06:31:16;7.90;;;2.53;;
71048;SDS011;58704;53.358;-6.238;2023-08-17T06:33:41;8.30;;;2.30;;
71048;SDS011;58704;53.358;-6.238;2023-08-17T06:36:07;5.87;;;2.33;;
71048;SDS011;58704;53.358;-6.238;2023-08-17T06:38:33;8.38;;;2.15;;
71048;SDS011;58704;53.358;-6.238;2023-08-17T06:40:58;6.63;;;2.23;;
71048;SDS011;58704;53.358;-6.238;2023-08-17T06:43:23;6.43;;;2.27;;
71048;SDS011;58704;53.358;-6.238;2023-08-17T06:45:49;5.53;;;2.00;;
71048;SDS011;58704;53.358;-6.238;2023-08-17T06:48:14;7.68;;;2.50;;
71048;SDS011;58704;53.358;-6.238;2023-08-17T06:50:40;8.53;;;2.57;;
71048;SDS011;58704;53.358;-6.238;2023-08-17T06:53:05;7.00;;;1.70;;
71048;SDS011;58704;53.358;-6.238;2023-08-17T06:55:30;4.03;;;1.73;;
71048;SDS011;58704;53.358;-6.238;2023-08-17T06:57:57;12.98;;;5.38;;
71048;SDS011;58704;53.358;-6.238;2023-08-17T07:00:22;6.97;;;1.70;;
71048;SDS011;58704;53.358;-6.238;2023-08-17T07:02:48;45.27;;;9.97;;
71048;SDS011;58704;53.358;-6.238;2023-08-17T07:05:17;22.30;;;6.03;;
71048;SDS011;58704;53.358;-6.238;2023-08-17T07:07:43;9.07;;;2.53;;
71048;SDS011;58704;53.358;-6.238;2023-08-17T07:10:09;6.38;;;2.72;;
71048;SDS011;58704;53.358;-6.238;2023-08-17T07:12:38;5.90;;;1.88;;
71048;SDS011;58704;53.358;-6.238;2023-08-17T07:15:03;7.10;;;2.10;;
71048;SDS011;58704;53.358;-6.238;2023-08-17T07:17:30;8.13;;;2.40;;
71048;SDS011;58704;53.358;-6.238;2023-08-17T07:19:55;7.43;;;3.03;;
71048;SDS011;58704;53.358;-6.238;2023-08-17T07:22:20;8.55;;;2.20;;
71048;SDS011;58704;53.358;-6.238;2023-08-17T07:24:46;7.40;;;2.40;;
71048;SDS011;58704;53.358;-6.238;2023-08-17T07:27:11;8.83;;;2.40;;
71048;SDS011;58704;53.358;-6.238;2023-08-17T07:29:37;8.43;;;3.27;;
71048;SDS011;58704;53.358;-6.238;2023-08-17T07:32:02;4.70;;;2.67;;
71048;SDS011;58704;53.358;-6.238;2023-08-17T07:34:28;6.78;;;2.72;;
71048;SDS011;58704;53.358;-6.238;2023-08-17T07:36:55;6.43;;;3.20;;
71048;SDS011;58704;53.358;-6.238;2023-08-17T07:39:20;9.30;;;2.63;;
71048;SDS011;58704;53.358;-6.238;2023-08-17T07:41:46;10.33;;;2.77;;
71048;SDS011;58704;53.358;-6.238;2023-08-17T07:44:11;5.87;;;2.43;;
71048;SDS011;58704;53.358;-6.238;2023-08-17T07:46:37;5.83;;;2.27;;
71048;SDS011;58704;53.358;-6.238;2023-08-17T07:49:03;6.22;;;2.22;;
71048;SDS011;58704;53.358;-6.238;2023-08-17T07:51:28;7.53;;;1.97;;
71048;SDS011;58704;53.358;-6.238;2023-08-17T07:53:55;3.95;;;2.42;;
71048;SDS011;58704;53.358;-6.238;2023-08-17T07:56:21;5.50;;;2.80;;
71048;SDS011;58704;53.358;-6.238;2023-08-17T07:58:46;6.83;;;3.40;;
71048;SDS011;58704;53.358;-6.238;2023-08-17T08:01:12;6.13;;;4.00;;
71048;SDS011;58704;53.358;-6.238;2023-08-17T08:03:37;9.00;;;4.20;;
71048;SDS011;58704;53.358;-6.238;2023-08-17T08:06:03;5.60;;;3.47;;
71048;SDS011;58704;53.358;-6.238;2023-08-17T08:08:28;8.50;;;3.27;;
71048;SDS011;58704;53.358;-6.238;2023-08-17T08:10:53;10.00;;;2.87;;
71048;SDS011;58704;53.358;-6.238;2023-08-17T08:13:19;9.07;;;2.40;;
71048;SDS011;58704;53.358;-6.238;2023-08-17T08:15:45;5.57;;;2.10;;
71048;SDS011;58704;53.358;-6.238;2023-08-17T08:18:10;5.30;;;1.70;;
71048;SDS011;58704;53.358;-6.238;2023-08-17T08:20:35;3.03;;;1.60;;
71048;SDS011;58704;53.358;-6.238;2023-08-17T08:23:01;4.73;;;1.70;;
71048;SDS011;58704;53.358;-6.238;2023-08-17T08:25:28;5.05;;;1.85;;
71048;SDS011;58704;53.358;-6.238;2023-08-17T08:27:53;4.20;;;1.80;;
71048;SDS011;58704;53.358;-6.238;2023-08-17T08:30:19;4.25;;;2.00;;
71048;SDS011;58704;53.358;-6.238;2023-08-17T08:32:44;5.10;;;2.10;;
71048;SDS011;58704;53.358;-6.238;2023-08-17T08:35:10;3.27;;;2.23;;
71048;SDS011;58704;53.358;-6.238;2023-08-17T08:37:35;6.10;;;2.73;;
71048;SDS011;58704;53.358;-6.238;2023-08-17T08:40:00;5.30;;;2.47;;
71048;SDS011;58704;53.358;-6.238;2023-08-17T08:42:26;6.83;;;2.70;;
71048;SDS011;58704;53.358;-6.238;2023-08-17T08:44:51;7.43;;;2.70;;
71048;SDS011;58704;53.358;-6.238;2023-08-17T08:47:17;5.63;;;2.10;;
71048;SDS011;58704;53.358;-6.238;2023-08-17T08:49:49;4.38;;;2.40;;
71048;SDS011;58704;53.358;-6.238;2023-08-17T08:52:28;7.00;;;2.17;;
71048;SDS011;58704;53.358;-6.238;2023-08-17T08:54:59;5.93;;;2.30;;
71048;SDS011;58704;53.358;-6.238;2023-08-17T08:57:31;5.07;;;2.00;;
71048;SDS011;58704;53.358;-6.238;2023-08-17T08:59:57;8.60;;;2.60;;
71048;SDS011;58704;53.358;-6.238;2023-08-17T09:02:24;7.13;;;1.90;;
71048;SDS011;58704;53.358;-6.238;2023-08-17T09:04:49;6.18;;;2.10;;
71048;SDS011;58704;53.358;-6.238;2023-08-17T09:07:15;10.07;;;2.33;;
71048;SDS011;58704;53.358;-6.238;2023-08-17T09:09:42;4.55;;;2.10;;
71048;SDS011;58704;53.358;-6.238;2023-08-17T09:12:09;5.35;;;1.77;;
71048;SDS011;58704;53.358;-6.238;2023-08-17T09:14:35;4.77;;;1.80;;
71048;SDS011;58704;53.358;-6.238;2023-08-17T09:17:02;5.45;;;1.80;;
71048;SDS011;58704;53.358;-6.238;2023-08-17T09:19:33;5.80;;;1.58;;
71048;SDS011;58704;53.358;-6.238;2023-08-17T09:22:00;4.67;;;2.30;;
71048;SDS011;58704;53.358;-6.238;2023-08-17T09:24:35;8.20;;;1.80;;
71048;SDS011;58704;53.358;-6.238;2023-08-17T09:27:04;9.07;;;1.98;;
71048;SDS011;58704;53.358;-6.238;2023-08-17T09:29:30;7.65;;;2.17;;
71048;SDS011;58704;53.358;-6.238;2023-08-17T09:32:09;6.70;;;1.90;;
71048;SDS011;58704;53.358;-6.238;2023-08-17T09:34:35;5.22;;;2.20;;
71048;SDS011;58704;53.358;-6.238;2023-08-17T09:37:03;4.70;;;1.80;;
71048;SDS011;58704;53.358;-6.238;2023-08-17T09:39:29;4.20;;;2.00;;
71048;SDS011;58704;53.358;-6.238;2023-08-17T09:41:55;6.60;;;2.55;;
71048;SDS011;58704;53.358;-6.238;2023-08-17T09:44:21;4.40;;;2.30;;
71048;SDS011;58704;53.358;-6.238;2023-08-17T09:46:47;3.53;;;1.70;;
71048;SDS011;58704;53.358;-6.238;2023-08-17T09:49:12;4.80;;;1.73;;
71048;SDS011;58704;53.358;-6.238;2023-08-17T09:51:41;5.20;;;1.83;;
71048;SDS011;58704;53.358;-6.238;2023-08-17T09:54:07;10.95;;;2.40;;
71048;SDS011;58704;53.358;-6.238;2023-08-17T09:56:32;3.07;;;1.70;;
71048;SDS011;58704;53.358;-6.238;2023-08-17T09:58:58;7.53;;;2.38;;
71048;SDS011;58704;53.358;-6.238;2023-08-17T10:01:24;5.87;;;1.97;;
71048;SDS011;58704;53.358;-6.238;2023-08-17T10:03:50;5.15;;;1.92;;
71048;SDS011;58704;53.358;-6.238;2023-08-17T10:06:17;3.50;;;1.90;;
71048;SDS011;58704;53.358;-6.238;2023-08-17T10:08:46;5.25;;;1.98;;
71048;SDS011;58704;53.358;-6.238;2023-08-17T10:11:14;4.72;;;2.38;;
71048;SDS011;58704;53.358;-6.238;2023-08-17T10:16:10;5.45;;;2.00;;
71048;SDS011;58704;53.358;-6.238;2023-08-17T10:18:45;6.10;;;1.70;;
71048;SDS011;58704;53.358;-6.238;2023-08-17T10:21:39;4.97;;;2.08;;
71048;SDS011;58704;53.358;-6.238;2023-08-17T10:24:05;4.43;;;1.98;;
71048;SDS011;58704;53.358;-6.238;2023-08-17T10:26:31;5.40;;;2.25;;
71048;SDS011;58704;53.358;-6.238;2023-08-17T10:28:56;4.27;;;2.10;;
71048;SDS011;58704;53.358;-6.238;2023-08-17T10:31:23;6.50;;;2.40;;
71048;SDS011;58704;53.358;-6.238;2023-08-17T10:33:50;8.35;;;2.55;;
71048;SDS011;58704;53.358;-6.238;2023-08-17T10:36:16;8.20;;;2.50;;
71048;SDS011;58704;53.358;-6.238;2023-08-17T10:38:41;7.50;;;2.47;;
71048;SDS011;58704;53.358;-6.238;2023-08-17T10:41:08;7.17;;;2.07;;
71048;SDS011;58704;53.358;-6.238;2023-08-17T10:43:33;9.32;;;2.55;;
71048;SDS011;58704;53.358;-6.238;2023-08-17T10:46:20;6.23;;;1.93;;
71048;SDS011;58704;53.358;-6.238;2023-08-17T10:48:45;3.38;;;2.20;;
71048;SDS011;58704;53.358;-6.238;2023-08-17T10:51:10;5.57;;;1.90;;
71048;SDS011;58704;53.358;-6.238;2023-08-17T10:53:39;6.75;;;2.00;;
71048;SDS011;58704;53.358;-6.238;2023-08-17T10:56:10;4.28;;;2.00;;
71048;SDS011;58704;53.358;-6.238;2023-08-17T10:58:37;6.25;;;2.00;;
71048;SDS011;58704;53.358;-6.238;2023-08-17T11:01:02;8.47;;;2.20;;
71048;SDS011;58704;53.358;-6.238;2023-08-17T11:03:28;5.83;;;2.20;;
71048;SDS011;58704;53.358;-6.238;2023-08-17T11:05:54;7.03;;;2.10;;
71048;SDS011;58704;53.358;-6.238;2023-08-17T11:13:27;6.35;;;2.38;;
71048;SDS011;58704;53.358;-6.238;2023-08-17T11:15:54;6.75;;;2.67;;
71048;SDS011;58704;53.358;-6.238;2023-08-17T11:18:20;7.68;;;2.30;;
71048;SDS011;58704;53.358;-6.238;2023-08-17T11:20:45;6.10;;;2.67;;
71048;SDS011;58704;53.358;-6.238;2023-08-17T11:23:13;6.30;;;2.67;;
71048;SDS011;58704;53.358;-6.238;2023-08-17T11:25:38;5.73;;;2.60;;
71048;SDS011;58704;53.358;-6.238;2023-08-17T11:28:06;5.22;;;2.60;;
71048;SDS011;58704;53.358;-6.238;2023-08-17T11:30:33;5.47;;;2.77;;
71048;SDS011;58704;53.358;-6.238;2023-08-17T11:33:00;11.93;;;2.70;;
71048;SDS011;58704;53.358;-6.238;2023-08-17T11:35:26;5.60;;;2.63;;
71048;SDS011;58704;53.358;-6.238;2023-08-17T11:37:51;4.87;;;2.27;;
71048;SDS011;58704;53.358;-6.238;2023-08-17T11:40:17;6.37;;;2.60;;
71048;SDS011;58704;53.358;-6.238;2023-08-17T11:42:43;5.13;;;2.33;;
71048;SDS011;58704;53.358;-6.238;2023-08-17T11:45:09;8.70;;;3.30;;
71048;SDS011;58704;53.358;-6.238;2023-08-17T11:47:35;10.77;;;3.35;;
71048;SDS011;58704;53.358;-6.238;2023-08-17T11:50:01;5.70;;;2.57;;
71048;SDS011;58704;53.358;-6.238;2023-08-17T11:52:28;7.03;;;2.50;;
71048;SDS011;58704;53.358;-6.238;2023-08-17T11:54:57;4.53;;;2.50;;
71048;SDS011;58704;53.358;-6.238;2023-08-17T11:57:23;4.78;;;2.25;;
71048;SDS011;58704;53.358;-6.238;2023-08-17T11:59:48;6.03;;;2.60;;
71048;SDS011;58704;53.358;-6.238;2023-08-17T12:02:14;5.05;;;2.55;;
71048;SDS011;58704;53.358;-6.238;2023-08-17T12:04:39;9.27;;;3.50;;
71048;SDS011;58704;53.358;-6.238;2023-08-17T12:07:05;6.30;;;3.70;;
71048;SDS011;58704;53.358;-6.238;2023-08-17T12:09:33;10.30;;;3.67;;
71048;SDS011;58704;53.358;-6.238;2023-08-17T12:11:59;9.90;;;3.50;;
71048;SDS011;58704;53.358;-6.238;2023-08-17T12:14:26;5.57;;;3.23;;
71048;SDS011;58704;53.358;-6.238;2023-08-17T12:16:52;6.32;;;3.17;;
71048;SDS011;58704;53.358;-6.238;2023-08-17T12:19:19;5.43;;;3.57;;
71048;SDS011;58704;53.358;-6.238;2023-08-17T12:21:45;6.43;;;3.57;;
71048;SDS011;58704;53.358;-6.238;2023-08-17T12:24:11;5.75;;;3.20;;
71048;SDS011;58704;53.358;-6.238;2023-08-17T12:26:43;4.53;;;3.03;;
71048;SDS011;58704;53.358;-6.238;2023-08-17T12:29:08;8.07;;;3.60;;
71048;SDS011;58704;53.358;-6.238;2023-08-17T12:31:34;11.40;;;4.03;;
71048;SDS011;58704;53.358;-6.238;2023-08-17T12:34:00;9.75;;;4.32;;
71048;SDS011;58704;53.358;-6.238;2023-08-17T12:36:25;9.33;;;4.27;;
71048;SDS011;58704;53.358;-6.238;2023-08-17T12:38:51;9.00;;;4.33;;
71048;SDS011;58704;53.358;-6.238;2023-08-17T12:41:16;9.20;;;4.93;;
71048;SDS011;58704;53.358;-6.238;2023-08-17T12:43:42;11.50;;;4.40;;
71048;SDS011;58704;53.358;-6.238;2023-08-17T12:46:08;7.43;;;3.90;;
71048;SDS011;58704;53.358;-6.238;2023-08-17T12:48:33;8.73;;;4.10;;
71048;SDS011;58704;53.358;-6.238;2023-08-17T12:50:58;6.73;;;3.90;;
71048;SDS011;58704;53.358;-6.238;2023-08-17T12:53:24;10.73;;;4.10;;
71048;SDS011;58704;53.358;-6.238;2023-08-17T12:55:49;9.40;;;5.23;;
71048;SDS011;58704;53.358;-6.238;2023-08-17T12:58:14;8.83;;;5.40;;
71048;SDS011;58704;53.358;-6.238;2023-08-17T13:00:40;10.40;;;4.80;;
71048;SDS011;58704;53.358;-6.238;2023-08-17T13:03:05;14.67;;;5.30;;
71048;SDS011;58704;53.358;-6.238;2023-08-17T13:05:30;6.93;;;4.57;;
71048;SDS011;58704;53.358;-6.238;2023-08-17T13:07:56;11.73;;;5.50;;
71048;SDS011;58704;53.358;-6.238;2023-08-17T13:10:21;8.43;;;5.00;;
71048;SDS011;58704;53.358;-6.238;2023-08-17T13:12:47;8.53;;;5.53;;
71048;SDS011;58704;53.358;-6.238;2023-08-17T13:15:12;10.13;;;4.80;;
71048;SDS011;58704;53.358;-6.238;2023-08-17T13:17:38;16.33;;;6.18;;
71048;SDS011;58704;53.358;-6.238;2023-08-17T13:20:04;9.80;;;4.73;;
71048;SDS011;58704;53.358;-6.238;2023-08-17T13:22:31;7.82;;;4.63;;
71048;SDS011;58704;53.358;-6.238;2023-08-17T13:24:57;8.60;;;4.47;;
71048;SDS011;58704;53.358;-6.238;2023-08-17T13:27:22;9.93;;;4.63;;
71048;SDS011;58704;53.358;-6.238;2023-08-17T13:29:48;20.00;;;5.27;;
71048;SDS011;58704;53.358;-6.238;2023-08-17T13:32:13;10.10;;;4.13;;
71048;SDS011;58704;53.358;-6.238;2023-08-17T13:34:38;10.53;;;3.90;;
71048;SDS011;58704;53.358;-6.238;2023-08-17T13:37:04;10.47;;;4.47;;
71048;SDS011;58704;53.358;-6.238;2023-08-17T13:39:29;6.87;;;3.90;;
71048;SDS011;58704;53.358;-6.238;2023-08-17T13:41:54;4.93;;;3.57;;
71048;SDS011;58704;53.358;-6.238;2023-08-17T13:44:20;9.15;;;4.32;;
71048;SDS011;58704;53.358;-6.238;2023-08-17T13:46:45;11.07;;;4.70;;
71048;SDS011;58704;53.358;-6.238;2023-08-17T13:49:11;8.03;;;4.50;;
71048;SDS011;58704;53.358;-6.238;2023-08-17T13:51:36;9.67;;;4.47;;
71048;SDS011;58704;53.358;-6.238;2023-08-17T13:54:01;12.83;;;4.50;;
71048;SDS011;58704;53.358;-6.238;2023-08-17T13:56:27;13.95;;;5.50;;
71048;SDS011;58704;53.358;-6.238;2023-08-17T13:58:52;8.93;;;4.40;;
71048;SDS011;58704;53.358;-6.238;2023-08-17T14:01:18;12.90;;;5.30;;
71048;SDS011;58704;53.358;-6.238;2023-08-17T14:03:43;11.88;;;4.88;;
71048;SDS011;58704;53.358;-6.238;2023-08-17T14:06:09;8.67;;;4.77;;
71048;SDS011;58704;53.358;-6.238;2023-08-17T14:08:34;12.50;;;5.33;;
71048;SDS011;58704;53.358;-6.238;2023-08-17T14:11:00;13.77;;;5.78;;
71048;SDS011;58704;53.358;-6.238;2023-08-17T14:13:25;11.63;;;5.80;;
71048;SDS011;58704;53.358;-6.238;2023-08-17T14:15:51;13.27;;;6.23;;
71048;SDS011;58704;53.358;-6.238;2023-08-17T14:18:16;17.60;;;5.50;;
71048;SDS011;58704;53.358;-6.238;2023-08-17T14:20:41;8.37;;;5.40;;
71048;SDS011;58704;53.358;-6.238;2023-08-17T14:23:07;11.07;;;5.90;;
71048;SDS011;58704;53.358;-6.238;2023-08-17T14:25:32;11.10;;;5.57;;
71048;SDS011;58704;53.358;-6.238;2023-08-17T14:27:58;9.83;;;5.40;;
71048;SDS011;58704;53.358;-6.238;2023-08-17T14:30:24;11.80;;;5.30;;
71048;SDS011;58704;53.358;-6.238;2023-08-17T14:32:51;12.15;;;5.35;;
71048;SDS011;58704;53.358;-6.238;2023-08-17T14:35:16;14.40;;;5.83;;
71048;SDS011;58704;53.358;-6.238;2023-08-17T14:37:41;14.13;;;5.47;;
71048;SDS011;58704;53.358;-6.238;2023-08-17T14:40:07;17.10;;;5.97;;
71048;SDS011;58704;53.358;-6.238;2023-08-17T14:42:33;9.73;;;5.00;;
71048;SDS011;58704;53.358;-6.238;2023-08-17T14:44:58;12.90;;;5.13;;